Time,TemperatureF,DewpointF,PressureIn,WindDirection,WindDirectionDegrees,WindSpeedMPH,WindSpeedGustMPH,Humidity,HourlyPrecipIn,Conditions,Clouds,dailyrainin,SoftwareType,DateUTC
2013-08-22 00:00:00,63.5,34.0,29.91,West,281,0.0,2.0,34,0.00,,,0.00,weatherlink.com 1.10,2013-08-22 06:00:00,
2013-08-22 00:15:00,61.9,36.0,29.91,WNW,290,2.0,3.0,38,0.00,,,0.00,weatherlink.com 1.10,2013-08-22 06:15:00,
2013-08-22 00:31:00,60.8,35.0,29.91,WNW,298,0.0,3.0,39,0.00,,,0.00,weatherlink.com 1.10,2013-08-22 06:31:00,
2013-08-22 00:46:00,61.0,35.0,29.91,WNW,297,0.0,0.0,38,0.00,,,0.00,weatherlink.com 1.10,2013-08-22 06:46:00,
2013-08-22 01:01:00,60.4,35.0,29.92,WNW,299,0.0,3.0,39,0.00,,,0.00,weatherlink.com 1.10,2013-08-22 07:01:00,
2013-08-22 01:16:00,59.0,35.0,29.93,WNW,300,0.0,1.0,41,0.00,,,0.00,weatherlink.com 1.10,2013-08-22 07:16:00,
2013-08-22 01:31:00,57.6,36.0,29.93,WNW,295,0.0,3.0,44,0.00,,,0.00,weatherlink.com 1.10,2013-08-22 07:31:00,
2013-08-22 01:46:00,57.1,35.0,29.93,WNW,294,0.0,0.0,44,0.00,,,0.00,weatherlink.com 1.10,2013-08-22 07:46:00,
2013-08-22 02:01:00,56.9,35.0,29.93,WNW,294,0.0,0.0,44,0.00,,,0.00,weatherlink.com 1.10,2013-08-22 08:01:00,
2013-08-22 02:16:00,56.2,35.0,29.93,WNW,294,0.0,1.0,46,0.00,,,0.00,weatherlink.com 1.10,2013-08-22 08:16:00,
2013-08-22 02:31:00,55.6,35.0,29.93,WNW,294,0.0,0.0,46,0.00,,,0.00,weatherlink.com 1.10,2013-08-22 08:31:00,
2013-08-22 02:46:00,54.9,35.0,29.93,WNW,294,0.0,0.0,47,0.00,,,0.00,weatherlink.com 1.10,2013-08-22 08:46:00,
2013-08-22 03:01:00,54.8,35.0,29.93,WNW,294,0.0,0.0,47,0.00,,,0.00,weatherlink.com 1.10,2013-08-22 09:01:00,
2013-08-22 03:16:00,54.5,35.0,29.93,WNW,294,0.0,0.0,48,0.00,,,0.00,weatherlink.com 1.10,2013-08-22 09:16:00,
2013-08-22 03:31:00,53.0,35.0,29.92,WNW,292,0.0,0.0,50,0.00,,,0.00,weatherlink.com 1.10,2013-08-22 09:31:00,
2013-08-22 03:46:00,52.1,35.0,29.93,WNW,292,0.0,0.0,53,0.00,,,0.00,weatherlink.com 1.10,2013-08-22 09:46:00,
2013-08-22 04:01:00,51.7,35.0,29.92,WNW,286,0.0,2.0,54,0.00,,,0.00,weatherlink.com 1.10,2013-08-22 10:01:00,
2013-08-22 04:16:00,51.9,35.0,29.92,WNW,287,0.0,2.0,53,0.00,,,0.00,weatherlink.com 1.10,2013-08-22 10:16:00,
2013-08-22 04:31:00,51.2,34.0,29.93,NNW,335,2.0,3.0,53,0.00,,,0.00,weatherlink.com 1.10,2013-08-22 10:31:00,
2013-08-22 04:46:00,51.9,36.0,29.93,NNW,335,0.0,0.0,54,0.00,,,0.00,weatherlink.com 1.10,2013-08-22 10:46:00,
2013-08-22 06:31:00,49.5,36.0,29.93,NNW,335,0.0,0.0,59,0.00,,,0.00,weatherlink.com 1.10,2013-08-22 12:31:00,
2013-08-22 06:46:00,49.6,36.0,29.93,NNW,334,0.0,0.0,59,0.00,,,0.00,weatherlink.com 1.10,2013-08-22 12:46:00,
2013-08-22 07:01:00,49.3,36.0,29.93,NW,323,0.0,0.0,61,0.00,,,0.00,weatherlink.com 1.10,2013-08-22 13:01:00,
2013-08-22 07:16:00,49.1,36.0,29.93,NW,324,0.0,0.0,60,0.00,,,0.00,weatherlink.com 1.10,2013-08-22 13:16:00,
2013-08-22 07:31:00,49.2,36.0,29.93,NW,324,0.0,0.0,61,0.00,,,0.00,weatherlink.com 1.10,2013-08-22 13:31:00,
2013-08-22 07:46:00,49.7,38.0,29.93,NW,324,0.0,0.0,64,0.00,,,0.00,weatherlink.com 1.10,2013-08-22 13:46:00,
2013-08-22 08:01:00,51.0,38.0,29.93,NW,324,0.0,0.0,61,0.00,,,0.00,weatherlink.com 1.10,2013-08-22 14:01:00,
2013-08-22 08:16:00,53.8,39.0,29.93,NW,324,0.0,0.0,58,0.00,,,0.00,weatherlink.com 1.10,2013-08-22 14:16:00,
2013-08-22 08:31:00,56.0,40.0,29.93,NW,318,0.0,0.0,56,0.00,,,0.00,weatherlink.com 1.10,2013-08-22 14:31:00,
2013-08-22 08:46:00,57.7,39.0,29.93,SW,226,0.0,0.0,51,0.00,,,0.00,weatherlink.com 1.10,2013-08-22 14:46:00,
2013-08-22 09:02:00,59.3,39.0,29.92,South,169,0.0,0.0,48,0.00,,,0.00,weatherlink.com 1.10,2013-08-22 15:02:00,
2013-08-22 09:17:00,60.9,42.0,29.91,South,170,0.0,0.0,51,0.00,,,0.00,weatherlink.com 1.10,2013-08-22 15:17:00,
2013-08-22 09:32:00,62.5,42.0,29.91,North,10,0.0,2.0,47,0.00,,,0.00,weatherlink.com 1.10,2013-08-22 15:32:00,
2013-08-22 09:47:00,63.3,43.0,29.90,East,87,0.0,0.0,48,0.00,,,0.00,weatherlink.com 1.10,2013-08-22 15:47:00,
2013-08-22 10:02:00,64.4,44.0,29.90,SSE,149,0.0,0.0,48,0.00,,,0.00,weatherlink.com 1.10,2013-08-22 16:02:00,
2013-08-22 10:17:00,66.9,45.0,29.89,SSE,149,0.0,1.0,45,0.00,,,0.00,weatherlink.com 1.10,2013-08-22 16:17:00,
2013-08-22 10:32:00,68.9,44.0,29.89,NNW,339,0.0,2.0,41,0.00,,,0.00,weatherlink.com 1.10,2013-08-22 16:32:00,
2013-08-22 10:47:00,68.5,44.0,29.89,NNE,33,0.0,4.0,41,0.00,,,0.00,weatherlink.com 1.10,2013-08-22 16:47:00,
2013-08-22 11:02:00,68.9,43.0,29.88,NW,318,0.0,3.0,40,0.00,,,0.00,weatherlink.com 1.10,2013-08-22 17:02:00,
2013-08-22 11:17:00,70.1,44.0,29.88,WNW,290,0.0,1.0,39,0.00,,,0.00,weatherlink.com 1.10,2013-08-22 17:17:00,
2013-08-22 11:32:00,71.1,45.0,29.87,NNW,327,0.0,0.0,39,0.00,,,0.00,weatherlink.com 1.10,2013-08-22 17:32:00,
2013-08-22 11:47:00,72.4,45.0,29.86,ESE,118,0.0,5.0,38,0.00,,,0.00,weatherlink.com 1.10,2013-08-22 17:47:00,
2013-08-22 12:02:00,74.2,46.0,29.87,SW,217,0.0,3.0,37,0.00,,,0.00,weatherlink.com 1.10,2013-08-22 18:02:00,
2013-08-22 12:17:00,75.1,48.0,29.86,West,277,10.0,10.0,38,0.00,,,0.00,weatherlink.com 1.10,2013-08-22 18:17:00,
2013-08-22 12:32:00,76.1,46.0,29.86,WSW,242,4.0,12.0,35,0.00,,,0.00,weatherlink.com 1.10,2013-08-22 18:32:00,
2013-08-22 12:47:00,78.6,47.0,29.84,ESE,108,3.0,4.0,33,0.00,,,0.00,weatherlink.com 1.10,2013-08-22 18:47:00,
2013-08-22 13:02:00,79.8,47.0,29.84,SSE,147,0.0,7.0,31,0.00,,,0.00,weatherlink.com 1.10,2013-08-22 19:02:00,
2013-08-22 13:17:00,81.3,47.0,29.83,SSE,162,4.0,8.0,30,0.00,,,0.00,weatherlink.com 1.10,2013-08-22 19:17:00,
2013-08-22 13:32:00,82.2,48.0,29.82,SE,142,1.0,7.0,30,0.00,,,0.00,weatherlink.com 1.10,2013-08-22 19:32:00,
2013-08-22 13:47:00,82.9,47.0,29.80,SSE,160,1.0,11.0,28,0.00,,,0.00,weatherlink.com 1.10,2013-08-22 19:47:00,
2013-08-22 14:03:00,84.5,47.0,29.79,SE,135,0.0,15.0,27,0.00,,,0.00,weatherlink.com 1.10,2013-08-22 20:03:00,
2013-08-22 14:18:00,84.0,47.0,29.79,SSE,156,13.0,13.0,27,0.00,,,0.00,weatherlink.com 1.10,2013-08-22 20:18:00,
2013-08-22 14:33:00,85.7,48.0,29.78,SSE,155,7.0,14.0,27,0.00,,,0.00,weatherlink.com 1.10,2013-08-22 20:33:00,
2013-08-22 14:48:00,85.9,48.0,29.77,SSE,161,3.0,14.0,27,0.00,,,0.00,weatherlink.com 1.10,2013-08-22 20:48:00,
2013-08-22 15:03:00,85.6,46.0,29.77,SSE,156,3.0,9.0,25,0.00,,,0.00,weatherlink.com 1.10,2013-08-22 21:03:00,
2013-08-22 15:18:00,87.2,44.0,29.76,SSE,160,2.0,17.0,22,0.00,,,0.00,weatherlink.com 1.10,2013-08-22 21:18:00,
2013-08-22 15:33:00,88.0,45.0,29.75,SE,144,5.0,14.0,22,0.00,,,0.00,weatherlink.com 1.10,2013-08-22 21:33:00,
2013-08-22 15:48:00,88.3,40.0,29.74,SSE,152,6.0,14.0,18,0.00,,,0.00,weatherlink.com 1.10,2013-08-22 21:48:00,
2013-08-22 16:03:00,88.9,40.0,29.74,SSE,165,2.0,13.0,18,0.00,,,0.00,weatherlink.com 1.10,2013-08-22 22:03:00,
2013-08-22 16:18:00,89.3,39.0,29.73,SSE,153,7.0,12.0,17,0.00,,,0.00,weatherlink.com 1.10,2013-08-22 22:18:00,
2013-08-22 16:33:00,89.7,39.0,29.72,SSE,161,0.0,8.0,17,0.00,,,0.00,weatherlink.com 1.10,2013-08-22 22:33:00,
2013-08-22 16:48:00,90.3,43.0,29.71,SE,128,0.0,4.0,19,0.00,,,0.00,weatherlink.com 1.10,2013-08-22 22:48:00,
2013-08-22 17:03:00,90.3,41.0,29.70,SSE,148,3.0,4.0,18,0.00,,,0.00,weatherlink.com 1.10,2013-08-22 23:03:00,
2013-08-22 17:18:00,89.0,39.0,29.70,SSE,148,0.0,3.0,17,0.00,,,0.00,weatherlink.com 1.10,2013-08-22 23:18:00,
2013-08-22 17:33:00,89.7,42.0,29.70,SSE,148,1.0,3.0,19,0.00,,,0.00,weatherlink.com 1.10,2013-08-22 23:33:00,
2013-08-22 17:48:00,89.5,39.0,29.69,SSE,163,3.0,6.0,17,0.00,,,0.00,weatherlink.com 1.10,2013-08-22 23:48:00,
2013-08-22 18:03:00,89.3,39.0,29.68,SSE,159,1.0,5.0,17,0.00,,,0.00,weatherlink.com 1.10,2013-08-23 00:03:00,
2013-08-22 18:18:00,89.8,41.0,29.68,SE,130,2.0,5.0,18,0.00,,,0.00,weatherlink.com 1.10,2013-08-23 00:18:00,
2013-08-22 18:33:00,89.4,39.0,29.68,SE,145,6.0,7.0,17,0.00,,,0.00,weatherlink.com 1.10,2013-08-23 00:33:00,
2013-08-22 18:48:00,88.1,40.0,29.69,SSE,159,9.0,18.0,18,0.00,,,0.00,weatherlink.com 1.10,2013-08-23 00:48:00,
2013-08-22 19:03:00,87.2,44.0,29.68,SE,144,11.0,20.0,22,0.00,,,0.00,weatherlink.com 1.10,2013-08-23 01:03:00,
2013-08-22 19:18:00,85.9,45.0,29.68,SE,139,9.0,17.0,24,0.00,,,0.00,weatherlink.com 1.10,2013-08-23 01:18:00,
2013-08-22 19:33:00,83.9,45.0,29.69,ESE,118,8.0,16.0,26,0.00,,,0.00,weatherlink.com 1.10,2013-08-23 01:33:00,
2013-08-22 19:48:00,83.3,46.0,29.69,SSE,157,2.0,22.0,27,0.00,,,0.00,weatherlink.com 1.10,2013-08-23 01:48:00,
2013-08-22 20:03:00,82.9,45.0,29.69,SSE,159,13.0,19.0,26,0.00,,,0.00,weatherlink.com 1.10,2013-08-23 02:03:00,
2013-08-22 20:18:00,82.3,46.0,29.69,SSE,166,2.0,16.0,28,0.00,,,0.00,weatherlink.com 1.10,2013-08-23 02:18:00,
2013-08-22 20:33:00,80.9,45.0,29.70,South,187,1.0,5.0,28,0.00,,,0.00,weatherlink.com 1.10,2013-08-23 02:33:00,
2013-08-22 20:48:00,80.3,45.0,29.70,South,184,0.0,3.0,29,0.00,,,0.00,weatherlink.com 1.10,2013-08-23 02:48:00,
2013-08-22 21:03:00,79.3,46.0,29.71,WSW,248,0.0,5.0,31,0.00,,,0.00,weatherlink.com 1.10,2013-08-23 03:03:00,
2013-08-22 21:18:00,79.1,45.0,29.71,South,189,0.0,5.0,30,0.00,,,0.00,weatherlink.com 1.10,2013-08-23 03:18:00,
2013-08-22 21:33:00,78.5,45.0,29.71,SSE,160,0.0,4.0,31,0.00,,,0.00,weatherlink.com 1.10,2013-08-23 03:33:00,
2013-08-22 21:48:00,77.3,47.0,29.71,SSE,160,0.0,2.0,34,0.00,,,0.00,weatherlink.com 1.10,2013-08-23 03:48:00,
2013-08-22 22:03:00,77.6,47.0,29.71,SSE,158,2.0,8.0,34,0.00,,,0.00,weatherlink.com 1.10,2013-08-23 04:03:00,
2013-08-22 22:18:00,78.5,47.0,29.71,South,178,1.0,4.0,33,0.00,,,0.00,weatherlink.com 1.10,2013-08-23 04:18:00,
2013-08-22 22:33:00,79.1,47.0,29.70,ESE,119,5.0,10.0,32,0.00,,,0.00,weatherlink.com 1.10,2013-08-23 04:33:00,
2013-08-22 22:48:00,79.0,47.0,29.70,SSE,165,6.0,10.0,33,0.00,,,0.00,weatherlink.com 1.10,2013-08-23 04:48:00,
2013-08-22 23:03:00,78.5,47.0,29.71,SSE,152,6.0,14.0,33,0.00,,,0.00,weatherlink.com 1.10,2013-08-23 05:03:00,
2013-08-22 23:18:00,78.1,47.0,29.70,SSE,157,8.0,13.0,34,0.00,,,0.00,weatherlink.com 1.10,2013-08-23 05:18:00,
2013-08-22 23:33:00,77.4,48.0,29.70,SSE,151,6.0,11.0,35,0.00,,,0.00,weatherlink.com 1.10,2013-08-23 05:33:00,
2013-08-22 23:48:00,76.2,49.0,29.70,SSE,161,1.0,10.0,38,0.00,,,0.00,weatherlink.com 1.10,2013-08-23 05:48:00,